sensor_id;sensor_type;location;lat;lon;timestamp;pressure;altitude;pressure_sealevel;temperature;humidity
75157;BME280;63736;50.076;8.198;2023-03-04T00:02:02;100307.03;;;-1.00;100.00
75157;BME280;63736;50.076;8.198;2023-03-04T00:04:28;100302.81;;;-1.07;100.00
75157;BME280;63736;50.076;8.198;2023-03-04T00:06:53;100307.22;;;-1.09;100.00
75157;BME280;63736;50.076;8.198;2023-03-04T00:09:18;100309.91;;;-1.12;100.00
75157;BME280;63736;50.076;8.198;2023-03-04T00:11:43;100308.19;;;-1.13;100.00
75157;BME280;63736;50.076;8.198;2023-03-04T00:14:08;100305.56;;;-1.13;100.00
75157;BME280;63736;50.076;8.198;2023-03-04T00:16:34;100307.25;;;-1.11;100.00
75157;BME280;63736;50.076;8.198;2023-03-04T00:18:59;100311.69;;;-1.13;100.00
75157;BME280;63736;50.076;8.198;2023-03-04T00:21:24;100304.75;;;-1.15;100.00
75157;BME280;63736;50.076;8.198;2023-03-04T00:23:49;100308.28;;;-1.17;100.00
75157;BME280;63736;50.076;8.198;2023-03-04T00:26:15;100306.63;;;-1.21;100.00
75157;BME280;63736;50.076;8.198;2023-03-04T00:28:40;100306.66;;;-1.22;100.00
75157;BME280;63736;50.076;8.198;2023-03-04T00:31:06;100310.25;;;-1.28;100.00
75157;BME280;63736;50.076;8.198;2023-03-04T00:33:31;100307.72;;;-1.31;100.00
75157;BME280;63736;50.076;8.198;2023-03-04T00:35:56;100308.66;;;-1.34;100.00
75157;BME280;63736;50.076;8.198;2023-03-04T00:38:22;100310.44;;;-1.36;100.00
75157;BME280;63736;50.076;8.198;2023-03-04T00:40:47;100306.13;;;-1.38;100.00
75157;BME280;63736;50.076;8.198;2023-03-04T00:43:12;100309.69;;;-1.41;100.00
75157;BME280;63736;50.076;8.198;2023-03-04T00:45:37;100300.13;;;-1.43;100.00
75157;BME280;63736;50.076;8.198;2023-03-04T00:48:02;100301.94;;;-1.45;100.00
75157;BME280;63736;50.076;8.198;2023-03-04T00:50:28;100302.91;;;-1.51;100.00
75157;BME280;63736;50.076;8.198;2023-03-04T00:52:53;100301.06;;;-1.46;100.00
75157;BME280;63736;50.076;8.198;2023-03-04T00:55:18;100300.16;;;-1.45;100.00
75157;BME280;63736;50.076;8.198;2023-03-04T00:57:43;100294.88;;;-1.43;100.00
75157;BME280;63736;50.076;8.198;2023-03-04T01:00:08;100297.38;;;-1.37;100.00
75157;BME280;63736;50.076;8.198;2023-03-04T01:02:34;100294.44;;;-1.23;100.00
75157;BME280;63736;50.076;8.198;2023-03-04T01:04:59;100288.91;;;-1.11;100.00
75157;BME280;63736;50.076;8.198;2023-03-04T01:07:24;100287.84;;;-1.02;100.00
75157;BME280;63736;50.076;8.198;2023-03-04T01:09:49;100282.44;;;-0.96;100.00
75157;BME280;63736;50.076;8.198;2023-03-04T01:12:14;100281.47;;;-0.92;100.00
75157;BME280;63736;50.076;8.198;2023-03-04T01:14:40;100284.88;;;-0.88;100.00
75157;BME280;63736;50.076;8.198;2023-03-04T01:17:05;100277.88;;;-0.88;100.00
75157;BME280;63736;50.076;8.198;2023-03-04T01:19:30;100282.31;;;-0.90;100.00
75157;BME280;63736;50.076;8.198;2023-03-04T01:21:55;100282.31;;;-0.90;100.00
75157;BME280;63736;50.076;8.198;2023-03-04T01:24:20;100280.50;;;-0.88;100.00
75157;BME280;63736;50.076;8.198;2023-03-04T01:26:45;100274.31;;;-0.85;100.00
75157;BME280;63736;50.076;8.198;2023-03-04T01:29:11;100274.25;;;-0.84;100.00
75157;BME280;63736;50.076;8.198;2023-03-04T01:31:36;100254.06;;;-0.80;100.00
75157;BME280;63736;50.076;8.198;2023-03-04T01:34:01;100262.59;;;-0.70;100.00
75157;BME280;63736;50.076;8.198;2023-03-04T01:36:27;100249.16;;;-0.59;100.00
75157;BME280;63736;50.076;8.198;2023-03-04T01:38:52;100251.44;;;-0.45;100.00
75157;BME280;63736;50.076;8.198;2023-03-04T01:41:18;100251.25;;;-0.39;100.00
75157;BME280;63736;50.076;8.198;2023-03-04T01:43:46;100244.22;;;-0.37;100.00
75157;BME280;63736;50.076;8.198;2023-03-04T01:46:11;100249.34;;;-0.32;100.00
75157;BME280;63736;50.076;8.198;2023-03-04T01:48:39;100241.38;;;-0.29;100.00
75157;BME280;63736;50.076;8.198;2023-03-04T01:51:08;100230.72;;;-0.23;100.00
75157;BME280;63736;50.076;8.198;2023-03-04T01:53:35;100232.50;;;-0.25;100.00
75157;BME280;63736;50.076;8.198;2023-03-04T01:56:09;100229.16;;;-0.30;100.00
75157;BME280;63736;50.076;8.198;2023-03-04T01:58:35;100220.53;;;-0.36;100.00
75157;BME280;63736;50.076;8.198;2023-03-04T02:01:00;100231.97;;;-0.38;100.00
75157;BME280;63736;50.076;8.198;2023-03-04T02:03:26;100230.19;;;-0.36;100.00
75157;BME280;63736;50.076;8.198;2023-03-04T02:05:51;100230.25;;;-0.38;100.00
75157;BME280;63736;50.076;8.198;2023-03-04T02:08:18;100224.06;;;-0.37;100.00
75157;BME280;63736;50.076;8.198;2023-03-04T02:10:44;100216.03;;;-0.30;100.00
75157;BME280;63736;50.076;8.198;2023-03-04T02:13:10;100216.91;;;-0.31;100.00
75157;BME280;63736;50.076;8.198;2023-03-04T02:15:36;100213.28;;;-0.26;100.00
75157;BME280;63736;50.076;8.198;2023-03-04T02:18:01;100211.38;;;-0.21;100.00
75157;BME280;63736;50.076;8.198;2023-03-04T02:20:33;100204.47;;;-0.25;100.00
75157;BME280;63736;50.076;8.198;2023-03-04T02:23:02;100205.63;;;-0.34;100.00
75157;BME280;63736;50.076;8.198;2023-03-04T02:25:32;100214.50;;;-0.38;100.00
75157;BME280;63736;50.076;8.198;2023-03-04T02:27:59;100210.19;;;-0.40;100.00
75157;BME280;63736;50.076;8.198;2023-03-04T02:30:25;100205.00;;;-0.43;100.00
75157;BME280;63736;50.076;8.198;2023-03-04T02:32:50;100203.25;;;-0.43;100.00
75157;BME280;63736;50.076;8.198;2023-03-04T02:35:16;100202.47;;;-0.46;100.00
75157;BME280;63736;50.076;8.198;2023-03-04T02:37:42;100208.66;;;-0.49;100.00
75157;BME280;63736;50.076;8.198;2023-03-04T02:40:10;100203.53;;;-0.54;100.00
75157;BME280;63736;50.076;8.198;2023-03-04T02:42:38;100204.56;;;-0.59;100.00
75157;BME280;63736;50.076;8.198;2023-03-04T02:45:03;100201.22;;;-0.64;100.00
75157;BME280;63736;50.076;8.198;2023-03-04T02:47:28;100201.31;;;-0.69;100.00
75157;BME280;63736;50.076;8.198;2023-03-04T02:49:53;100202.25;;;-0.72;100.00
75157;BME280;63736;50.076;8.198;2023-03-04T02:52:19;100198.78;;;-0.72;100.00
75157;BME280;63736;50.076;8.198;2023-03-04T02:54:46;100203.97;;;-0.71;100.00
75157;BME280;63736;50.076;8.198;2023-03-04T02:57:12;100201.41;;;-0.72;100.00
75157;BME280;63736;50.076;8.198;2023-03-04T02:59:38;100195.38;;;-0.76;100.00
75157;BME280;63736;50.076;8.198;2023-03-04T03:02:03;100199.69;;;-0.73;100.00
75157;BME280;63736;50.076;8.198;2023-03-04T03:04:29;100190.03;;;-0.71;100.00
75157;BME280;63736;50.076;8.198;2023-03-04T03:06:54;100205.72;;;-0.70;100.00
75157;BME280;63736;50.076;8.198;2023-03-04T03:09:19;100202.19;;;-0.69;100.00
75157;BME280;63736;50.076;8.198;2023-03-04T03:11:44;100204.78;;;-0.67;100.00
75157;BME280;63736;50.076;8.198;2023-03-04T03:14:10;100193.38;;;-0.66;100.00
75157;BME280;63736;50.076;8.198;2023-03-04T03:16:35;100193.34;;;-0.64;100.00
75157;BME280;63736;50.076;8.198;2023-03-04T03:19:00;100191.53;;;-0.62;100.00
75157;BME280;63736;50.076;8.198;2023-03-04T03:21:25;100189.72;;;-0.60;100.00
75157;BME280;63736;50.076;8.198;2023-03-04T03:23:50;100188.81;;;-0.59;100.00
75157;BME280;63736;50.076;8.198;2023-03-04T03:26:16;100200.06;;;-0.54;100.00
75157;BME280;63736;50.076;8.198;2023-03-04T03:28:41;100195.53;;;-0.49;100.00
75157;BME280;63736;50.076;8.198;2023-03-04T03:31:06;100191.94;;;-0.45;100.00
75157;BME280;63736;50.076;8.198;2023-03-04T03:33:32;100190.97;;;-0.42;100.00
75157;BME280;63736;50.076;8.198;2023-03-04T03:35:57;100196.69;;;-0.28;100.00
75157;BME280;63736;50.076;8.198;2023-03-04T03:38:22;100191.06;;;-0.14;100.00
75157;BME280;63736;50.076;8.198;2023-03-04T03:40:47;100193.97;;;0.05;100.00
75157;BME280;63736;50.076;8.198;2023-03-04T03:43:13;100183.00;;;0.21;100.00
75157;BME280;63736;50.076;8.198;2023-03-04T03:45:38;100186.06;;;0.37;100.00
75157;BME280;63736;50.076;8.198;2023-03-04T03:48:03;100186.41;;;0.53;100.00
75157;BME280;63736;50.076;8.198;2023-03-04T03:50:28;100179.75;;;0.69;100.00
75157;BME280;63736;50.076;8.198;2023-03-04T03:52:54;100172.28;;;0.84;100.00
75157;BME280;63736;50.076;8.198;2023-03-04T03:55:19;100171.84;;;0.96;100.00
75157;BME280;63736;50.076;8.198;2023-03-04T03:57:45;100173.19;;;1.08;100.00
75157;BME280;63736;50.076;8.198;2023-03-04T04:00:10;100172.84;;;1.19;100.00
75157;BME280;63736;50.076;8.198;2023-03-04T04:02:35;100166.34;;;1.29;100.00
75157;BME280;63736;50.076;8.198;2023-03-04T04:05:01;100164.25;;;1.39;100.00
75157;BME280;63736;50.076;8.198;2023-03-04T04:07:26;100166.66;;;1.45;100.00
75157;BME280;63736;50.076;8.198;2023-03-04T04:09:51;100161.22;;;1.49;100.00
75157;BME280;63736;50.076;8.198;2023-03-04T04:12:17;100167.13;;;1.56;100.00
75157;BME280;63736;50.076;8.198;2023-03-04T04:14:42;100163.47;;;1.60;100.00
75157;BME280;63736;50.076;8.198;2023-03-04T04:17:08;100168.53;;;1.67;100.00
75157;BME280;63736;50.076;8.198;2023-03-04T04:19:33;100166.59;;;1.70;100.00
75157;BME280;63736;50.076;8.198;2023-03-04T04:21:59;100169.16;;;1.73;100.00
75157;BME280;63736;50.076;8.198;2023-03-04T04:24:24;100170.81;;;1.76;100.00
75157;BME280;63736;50.076;8.198;2023-03-04T04:26:49;100173.31;;;1.79;100.00
75157;BME280;63736;50.076;8.198;2023-03-04T04:29:14;100167.91;;;1.82;100.00
75157;BME280;63736;50.076;8.198;2023-03-04T04:31:40;100169.59;;;1.85;100.00
75157;BME280;63736;50.076;8.198;2023-03-04T04:34:05;100170.41;;;1.87;100.00
75157;BME280;63736;50.076;8.198;2023-03-04T04:36:30;100168.59;;;1.87;100.00
75157;BME280;63736;50.076;8.198;2023-03-04T04:38:55;100166.72;;;1.91;100.00
75157;BME280;63736;50.076;8.198;2023-03-04T04:41:22;100168.38;;;1.93;100.00
75157;BME280;63736;50.076;8.198;2023-03-04T04:43:48;100166.56;;;1.95;100.00
75157;BME280;63736;50.076;8.198;2023-03-04T04:46:14;100164.69;;;1.99;100.00
75157;BME280;63736;50.076;8.198;2023-03-04T04:48:39;100175.09;;;2.02;100.00
75157;BME280;63736;50.076;8.198;2023-03-04T04:51:04;100161.00;;;2.03;100.00
75157;BME280;63736;50.076;8.198;2023-03-04T04:53:29;100160.94;;;2.05;100.00
75157;BME280;63736;50.076;8.198;2023-03-04T04:55:54;100160.03;;;2.06;100.00
75157;BME280;63736;50.076;8.198;2023-03-04T04:58:20;100155.59;;;2.06;100.00
75157;BME280;63736;50.076;8.198;2023-03-04T05:00:45;100159.09;;;2.07;100.00
75157;BME280;63736;50.076;8.198;2023-03-04T05:03:10;100153.78;;;2.08;100.00
75157;BME280;63736;50.076;8.198;2023-03-04T05:05:35;100157.25;;;2.09;100.00
75157;BME280;63736;50.076;8.198;2023-03-04T05:08:00;100168.72;;;2.08;100.00
75157;BME280;63736;50.076;8.198;2023-03-04T05:10:26;100154.69;;;2.07;100.00
75157;BME280;63736;50.076;8.198;2023-03-04T05:12:51;100156.41;;;2.08;100.00
75157;BME280;63736;50.076;8.198;2023-03-04T05:15:16;100155.47;;;2.09;100.00
75157;BME280;63736;50.076;8.198;2023-03-04T05:17:41;100156.41;;;2.08;100.00
75157;BME280;63736;50.076;8.198;2023-03-04T05:20:07;100161.72;;;2.07;100.00
75157;BME280;63736;50.076;8.198;2023-03-04T05:22:32;100161.69;;;2.08;100.00
75157;BME280;63736;50.076;8.198;2023-03-04T05:24:58;100155.53;;;2.08;100.00
75157;BME280;63736;50.076;8.198;2023-03-04T05:27:23;100149.34;;;2.09;100.00
75157;BME280;63736;50.076;8.198;2023-03-04T05:29:48;100156.41;;;2.08;100.00
75157;BME280;63736;50.076;8.198;2023-03-04T05:32:13;100157.19;;;2.10;100.00
75157;BME280;63736;50.076;8.198;2023-03-04T05:34:38;100149.22;;;2.12;100.00
75157;BME280;63736;50.076;8.198;2023-03-04T05:37:03;100157.13;;;2.12;100.00
75157;BME280;63736;50.076;8.198;2023-03-04T05:39:29;100155.38;;;2.12;100.00
75157;BME280;63736;50.076;8.198;2023-03-04T05:41:54;100158.00;;;2.12;100.00
75157;BME280;63736;50.076;8.198;2023-03-04T05:44:19;100157.13;;;2.12;100.00
75157;BME280;63736;50.076;8.198;2023-03-04T05:46:44;100158.84;;;2.13;100.00
75157;BME280;63736;50.076;8.198;2023-03-04T05:49:09;100157.03;;;2.15;100.00
75157;BME280;63736;50.076;8.198;2023-03-04T05:51:35;100165.84;;;2.14;100.00
75157;BME280;63736;50.076;8.198;2023-03-04T05:54:00;100164.88;;;2.17;100.00
75157;BME280;63736;50.076;8.198;2023-03-04T05:56:25;100164.88;;;2.17;100.00
75157;BME280;63736;50.076;8.198;2023-03-04T05:58:50;100170.06;;;2.18;100.00
75157;BME280;63736;50.076;8.198;2023-03-04T06:01:16;100167.50;;;2.17;100.00
75157;BME280;63736;50.076;8.198;2023-03-04T06:03:41;100162.16;;;2.18;100.00
75157;BME280;63736;50.076;8.198;2023-03-04T06:06:09;100161.19;;;2.21;100.00
75157;BME280;63736;50.076;8.198;2023-03-04T06:08:34;100168.19;;;2.22;100.00
75157;BME280;63736;50.076;8.198;2023-03-04T06:10:59;100166.41;;;2.22;100.00
75157;BME280;63736;50.076;8.198;2023-03-04T06:13:25;100167.22;;;2.24;100.00
75157;BME280;63736;50.076;8.198;2023-03-04T06:15:54;100172.34;;;2.27;100.00
75157;BME280;63736;50.076;8.198;2023-03-04T06:18:19;100172.34;;;2.27;100.00
75157;BME280;63736;50.076;8.198;2023-03-04T06:20:44;100180.22;;;2.29;100.00
75157;BME280;63736;50.076;8.198;2023-03-04T06:23:10;100173.16;;;2.29;100.00
75157;BME280;63736;50.076;8.198;2023-03-04T06:25:35;100185.38;;;2.32;100.00
75157;BME280;63736;50.076;8.198;2023-03-04T06:28:00;100182.72;;;2.32;100.00
75157;BME280;63736;50.076;8.198;2023-03-04T06:30:25;100183.53;;;2.34;100.00
75157;BME280;63736;50.076;8.198;2023-03-04T06:32:51;100190.50;;;2.35;100.00
75157;BME280;63736;50.076;8.198;2023-03-04T06:35:16;100195.72;;;2.37;100.00
75157;BME280;63736;50.076;8.198;2023-03-04T06:37:42;100195.69;;;2.38;100.00
75157;BME280;63736;50.076;8.198;2023-03-04T06:40:07;100194.63;;;2.42;100.00
75157;BME280;63736;50.076;8.198;2023-03-04T06:42:33;100198.84;;;2.46;100.00
75157;BME280;63736;50.076;8.198;2023-03-04T06:44:59;100206.69;;;2.48;100.00
75157;BME280;63736;50.076;8.198;2023-03-04T06:47:24;100209.16;;;2.53;100.00
75157;BME280;63736;50.076;8.198;2023-03-04T06:49:49;100203.69;;;2.57;100.00
75157;BME280;63736;50.076;8.198;2023-03-04T06:52:14;100207.06;;;2.61;100.00
75157;BME280;63736;50.076;8.198;2023-03-04T06:54:40;100207.88;;;2.63;100.00
75157;BME280;63736;50.076;8.198;2023-03-04T06:57:05;100207.75;;;2.66;100.00
75157;BME280;63736;50.076;8.198;2023-03-04T06:59:30;100211.97;;;2.70;100.00
75157;BME280;63736;50.076;8.198;2023-03-04T07:01:55;100217.16;;;2.73;100.00
75157;BME280;63736;50.076;8.198;2023-03-04T07:04:21;100221.38;;;2.77;100.00
75157;BME280;63736;50.076;8.198;2023-03-04T07:06:49;100217.69;;;2.81;100.00
75157;BME280;63736;50.076;8.198;2023-03-04T07:09:14;100216.56;;;2.87;100.00
75157;BME280;63736;50.076;8.198;2023-03-04T07:11:39;100219.16;;;2.89;100.00
75157;BME280;63736;50.076;8.198;2023-03-04T07:14:05;100208.47;;;2.92;100.00
75157;BME280;63736;50.076;8.198;2023-03-04T07:16:30;100217.97;;;2.96;100.00
75157;BME280;63736;50.076;8.198;2023-03-04T07:18:55;100221.28;;;3.01;100.00
75157;BME280;63736;50.076;8.198;2023-03-04T07:21:20;100226.41;;;3.04;100.00
75157;BME280;63736;50.076;8.198;2023-03-04T07:23:46;100226.38;;;3.06;100.00
75157;BME280;63736;50.076;8.198;2023-03-04T07:26:11;100229.94;;;3.05;100.00
75157;BME280;63736;50.076;8.198;2023-03-04T07:28:36;100229.81;;;3.08;100.00
75157;BME280;63736;50.076;8.198;2023-03-04T07:31:09;100233.31;;;3.08;100.00
75157;BME280;63736;50.076;8.198;2023-03-04T07:33:34;100226.97;;;3.12;100.00
75157;BME280;63736;50.076;8.198;2023-03-04T07:35:59;100231.13;;;3.18;100.00
75157;BME280;63736;50.076;8.198;2023-03-04T07:38:25;100226.44;;;3.25;100.00
75157;BME280;63736;50.076;8.198;2023-03-04T07:40:56;100228.84;;;3.31;100.00
75157;BME280;63736;50.076;8.198;2023-03-04T07:43:22;100233.94;;;3.36;100.00
75157;BME280;63736;50.076;8.198;2023-03-04T07:45:47;100231.16;;;3.39;100.00
75157;BME280;63736;50.076;8.198;2023-03-04T07:48:12;100235.38;;;3.43;100.00
75157;BME280;63736;50.076;8.198;2023-03-04T07:50:37;100238.56;;;3.51;100.00
75157;BME280;63736;50.076;8.198;2023-03-04T07:53:03;100241.91;;;3.55;100.00
75157;BME280;63736;50.076;8.198;2023-03-04T07:55:28;100241.78;;;3.58;100.00
75157;BME280;63736;50.076;8.198;2023-03-04T07:57:55;100234.44;;;3.64;100.00
75157;BME280;63736;50.076;8.198;2023-03-04T08:00:20;100241.31;;;3.69;100.00
75157;BME280;63736;50.076;8.198;2023-03-04T08:02:46;100250.97;;;3.70;100.00
75157;BME280;63736;50.076;8.198;2023-03-04T08:05:11;100243.22;;;3.65;100.00
75157;BME280;63736;50.076;8.198;2023-03-04T08:07:36;100245.22;;;3.60;100.00
75157;BME280;63736;50.076;8.198;2023-03-04T08:10:02;100248.75;;;3.59;100.00
75157;BME280;63736;50.076;8.198;2023-03-04T08:12:27;100241.66;;;3.61;100.00
75157;BME280;63736;50.076;8.198;2023-03-04T08:14:53;100248.72;;;3.60;100.00
75157;BME280;63736;50.076;8.198;2023-03-04T08:17:19;100243.44;;;3.60;99.70
75157;BME280;63736;50.076;8.198;2023-03-04T08:19:44;100250.31;;;3.64;100.00
75157;BME280;63736;50.076;8.198;2023-03-04T08:22:09;100249.44;;;3.64;99.54
75157;BME280;63736;50.076;8.198;2023-03-04T08:24:34;100247.44;;;3.69;100.00
75157;BME280;63736;50.076;8.198;2023-03-04T08:26:59;100262.25;;;3.73;100.00
75157;BME280;63736;50.076;8.198;2023-03-04T08:29:24;100253.53;;;3.71;98.85
75157;BME280;63736;50.076;8.198;2023-03-04T08:31:51;100257.09;;;3.70;99.49
75157;BME280;63736;50.076;8.198;2023-03-04T08:34:17;100262.53;;;3.67;99.38
75157;BME280;63736;50.076;8.198;2023-03-04T08:36:43;100260.81;;;3.66;99.54
75157;BME280;63736;50.076;8.198;2023-03-04T08:39:08;100259.88;;;3.67;99.97
75157;BME280;63736;50.076;8.198;2023-03-04T08:41:35;100263.28;;;3.69;99.48
75157;BME280;63736;50.076;8.198;2023-03-04T08:44:00;100265.81;;;3.72;99.35
75157;BME280;63736;50.076;8.198;2023-03-04T08:46:26;100264.84;;;3.75;98.62
75157;BME280;63736;50.076;8.198;2023-03-04T08:48:51;100263.84;;;3.77;98.53
75157;BME280;63736;50.076;8.198;2023-03-04T08:51:16;100269.63;;;3.86;99.41
75157;BME280;63736;50.076;8.198;2023-03-04T08:53:42;100261.22;;;3.96;99.43
75157;BME280;63736;50.076;8.198;2023-03-04T08:56:07;100260.75;;;4.07;100.00
75157;BME280;63736;50.076;8.198;2023-03-04T08:58:33;100263.97;;;4.14;98.42
75157;BME280;63736;50.076;8.198;2023-03-04T09:00:59;100259.25;;;4.21;98.28
75157;BME280;63736;50.076;8.198;2023-03-04T09:03:25;100258.06;;;4.28;98.80
75157;BME280;63736;50.076;8.198;2023-03-04T09:05:50;100262.28;;;4.32;97.55
75157;BME280;63736;50.076;8.198;2023-03-04T09:08:15;100256.00;;;4.35;95.52
75157;BME280;63736;50.076;8.198;2023-03-04T09:10:41;100262.13;;;4.35;94.73
75157;BME280;63736;50.076;8.198;2023-03-04T09:13:06;100256.00;;;4.35;93.74
75157;BME280;63736;50.076;8.198;2023-03-04T09:15:32;100266.50;;;4.36;93.66
75157;BME280;63736;50.076;8.198;2023-03-04T09:18:00;100256.75;;;4.37;93.25
75157;BME280;63736;50.076;8.198;2023-03-04T09:20:25;100259.28;;;4.40;92.87
75157;BME280;63736;50.076;8.198;2023-03-04T09:22:51;100265.25;;;4.43;93.21
75157;BME280;63736;50.076;8.198;2023-03-04T09:25:16;100262.34;;;4.50;93.09
75157;BME280;63736;50.076;8.198;2023-03-04T09:27:41;100256.75;;;4.56;93.91
75157;BME280;63736;50.076;8.198;2023-03-04T09:30:06;100260.84;;;4.63;93.08
75157;BME280;63736;50.076;8.198;2023-03-04T09:32:32;100263.41;;;4.65;91.52
75157;BME280;63736;50.076;8.198;2023-03-04T09:34:57;100261.84;;;4.60;90.04
75157;BME280;63736;50.076;8.198;2023-03-04T09:37:22;100261.22;;;4.55;89.28
75157;BME280;63736;50.076;8.198;2023-03-04T09:39:47;100254.75;;;4.61;90.45
75157;BME280;63736;50.076;8.198;2023-03-04T09:42:16;100264.91;;;4.70;91.10
75157;BME280;63736;50.076;8.198;2023-03-04T09:44:46;100261.72;;;4.81;91.40
75157;BME280;63736;50.076;8.198;2023-03-04T09:47:13;100264.88;;;4.89;90.91
75157;BME280;63736;50.076;8.198;2023-03-04T09:49:41;100256.03;;;4.90;89.44
75157;BME280;63736;50.076;8.198;2023-03-04T09:52:17;100258.03;;;4.85;86.86
75157;BME280;63736;50.076;8.198;2023-03-04T09:55:04;100256.22;;;4.86;88.53
75157;BME280;63736;50.076;8.198;2023-03-04T10:00:11;100261.44;;;4.87;87.08
75157;BME280;63736;50.076;8.198;2023-03-04T10:05:09;100270.25;;;4.88;86.46
75157;BME280;63736;50.076;8.198;2023-03-04T10:07:37;100256.88;;;4.91;86.19
75157;BME280;63736;50.076;8.198;2023-03-04T10:10:18;100257.34;;;4.99;87.00
75157;BME280;63736;50.076;8.198;2023-03-04T10:12:46;100258.84;;;5.05;87.10
75157;BME280;63736;50.076;8.198;2023-03-04T10:15:22;100259.47;;;5.10;87.98
75157;BME280;63736;50.076;8.198;2023-03-04T10:17:48;100253.31;;;5.09;86.04
75157;BME280;63736;50.076;8.198;2023-03-04T10:20:20;100251.81;;;5.04;84.79
75157;BME280;63736;50.076;8.198;2023-03-04T10:22:46;100248.88;;;5.10;84.98
75157;BME280;63736;50.076;8.198;2023-03-04T10:25:17;100250.28;;;5.17;85.37
75157;BME280;63736;50.076;8.198;2023-03-04T10:27:43;100245.53;;;5.24;84.68
75157;BME280;63736;50.076;8.198;2023-03-04T10:30:22;100248.03;;;5.27;84.71
75157;BME280;63736;50.076;8.198;2023-03-04T10:32:51;100246.00;;;5.32;85.10
75157;BME280;63736;50.076;8.198;2023-03-04T10:35:17;100242.34;;;5.35;84.89
75157;BME280;63736;50.076;8.198;2023-03-04T10:37:48;100243.28;;;5.34;83.63
75157;BME280;63736;50.076;8.198;2023-03-04T10:40:23;100236.19;;;5.34;83.76
75157;BME280;63736;50.076;8.198;2023-03-04T10:42:49;100236.88;;;5.38;83.33
75157;BME280;63736;50.076;8.198;2023-03-04T10:45:19;100235.56;;;5.46;84.03
75157;BME280;63736;50.076;8.198;2023-03-04T10:47:50;100232.44;;;5.56;84.67
75157;BME280;63736;50.076;8.198;2023-03-04T10:50:20;100236.41;;;5.65;84.43
75157;BME280;63736;50.076;8.198;2023-03-04T10:52:46;100230.94;;;5.68;83.40
75157;BME280;63736;50.076;8.198;2023-03-04T10:57:42;100232.44;;;5.56;80.24
75157;BME280;63736;50.076;8.198;2023-03-04T11:02:46;100229.16;;;5.51;80.41
75157;BME280;63736;50.076;8.198;2023-03-04T11:05:19;100227.53;;;5.48;80.85
75157;BME280;63736;50.076;8.198;2023-03-04T11:07:47;100208.91;;;5.50;81.04
75157;BME280;63736;50.076;8.198;2023-03-04T11:10:20;100213.28;;;5.51;81.49
75157;BME280;63736;50.076;8.198;2023-03-04T11:12:49;100220.22;;;5.53;81.67
75157;BME280;63736;50.076;8.198;2023-03-04T11:15:16;100217.28;;;5.58;81.97
75157;BME280;63736;50.076;8.198;2023-03-04T11:17:46;100214.59;;;5.59;81.56
75157;BME280;63736;50.076;8.198;2023-03-04T11:20:29;100216.53;;;5.56;79.80
75157;BME280;63736;50.076;8.198;2023-03-04T11:22:56;100209.91;;;5.47;79.55
75157;BME280;63736;50.076;8.198;2023-03-04T11:25:32;100204.63;;;5.47;80.51
75157;BME280;63736;50.076;8.198;2023-03-04T11:27:59;100209.78;;;5.50;80.62
75157;BME280;63736;50.076;8.198;2023-03-04T11:38:13;100201.09;;;5.64;81.81
75157;BME280;63736;50.076;8.198;2023-03-04T11:40:42;100206.84;;;5.72;82.07
75157;BME280;63736;50.076;8.198;2023-03-04T11:43:18;100200.28;;;5.79;81.58
75157;BME280;63736;50.076;8.198;2023-03-04T11:48:18;100205.34;;;5.84;78.71
75157;BME280;63736;50.076;8.198;2023-03-04T11:50:54;100201.06;;;5.82;78.64
75157;BME280;63736;50.076;8.198;2023-03-04T11:56:17;100190.34;;;5.67;77.96
75157;BME280;63736;50.076;8.198;2023-03-04T12:01:18;100185.03;;;5.67;77.86
75157;BME280;63736;50.076;8.198;2023-03-04T12:04:01;100180.75;;;5.65;77.49
75157;BME280;63736;50.076;8.198;2023-03-04T12:06:48;100183.66;;;5.76;78.19
75157;BME280;63736;50.076;8.198;2023-03-04T12:21:59;100159.97;;;6.38;74.88
75157;BME280;63736;50.076;8.198;2023-03-04T12:24:41;100155.34;;;6.42;73.86
75157;BME280;63736;50.076;8.198;2023-03-04T12:29:45;100140.44;;;6.71;73.39
75157;BME280;63736;50.076;8.198;2023-03-04T12:37:28;100118.81;;;7.22;67.68
75157;BME280;63736;50.076;8.198;2023-03-04T12:40:04;100120.66;;;7.36;66.71
75157;BME280;63736;50.076;8.198;2023-03-04T12:48:05;100122.16;;;7.69;64.19
75157;BME280;63736;50.076;8.198;2023-03-04T12:50:40;100112.66;;;7.80;64.65
75157;BME280;63736;50.076;8.198;2023-03-04T12:53:11;100127.09;;;7.75;64.34
75157;BME280;63736;50.076;8.198;2023-03-04T12:55:41;100118.47;;;7.72;63.36
75157;BME280;63736;50.076;8.198;2023-03-04T12:58:24;100122.94;;;7.71;64.36
75157;BME280;63736;50.076;8.198;2023-03-04T13:03:27;100111.63;;;7.82;65.23
75157;BME280;63736;50.076;8.198;2023-03-04T13:06:02;100104.56;;;7.96;65.42
75157;BME280;63736;50.076;8.198;2023-03-04T13:08:37;100096.09;;;8.03;65.17
75157;BME280;63736;50.076;8.198;2023-03-04T13:14:06;100099.47;;;8.20;65.97
75157;BME280;63736;50.076;8.198;2023-03-04T13:18:56;100093.66;;;8.27;62.78
75157;BME280;63736;50.076;8.198;2023-03-04T13:21:23;100088.22;;;8.29;63.33
75157;BME280;63736;50.076;8.198;2023-03-04T13:23:49;100086.84;;;8.23;64.08
75157;BME280;63736;50.076;8.198;2023-03-04T13:28:40;100086.38;;;8.17;65.03
75157;BME280;63736;50.076;8.198;2023-03-04T13:36:03;100072.25;;;8.29;65.42
75157;BME280;63736;50.076;8.198;2023-03-04T13:41:14;100071.53;;;8.13;63.92
75157;BME280;63736;50.076;8.198;2023-03-04T13:43:41;100067.38;;;8.08;64.66
75157;BME280;63736;50.076;8.198;2023-03-04T13:51:22;100069.47;;;8.03;64.98
75157;BME280;63736;50.076;8.198;2023-03-04T13:53:52;100068.63;;;8.03;66.04
75157;BME280;63736;50.076;8.198;2023-03-04T13:56:22;100061.41;;;8.05;65.41
75157;BME280;63736;50.076;8.198;2023-03-04T13:58:49;100063.78;;;8.09;65.29
75157;BME280;63736;50.076;8.198;2023-03-04T14:01:26;100067.38;;;8.08;65.44
75157;BME280;63736;50.076;8.198;2023-03-04T14:03:52;100055.13;;;8.06;64.94